EW9496 Weather Reports


time (UTC)temp
C
wind
direction
speed
KPH
gust
KPH
rain 1hr
cm
rain 24hr
cm
rain mn
cm
humidity
%
barometer
mb
20240518201600 23 360 0.0 0.0 0.00 0.48 0.48 67 1010.4
20240518200102 23 360 3.2 6.4 0.00 0.48 0.48 66 1010.3
20240518194557 23 360 1.6 4.8 0.00 0.48 0.48 66 1010.4
20240518193113 23 360 0.0 4.8 0.00 0.48 0.48 67 1010.4
20240518191554 23 360 4.8 8.0 0.00 0.48 0.48 66 1010.4
20240518190107 23 360 3.2 6.4 0.00 0.48 0.48 66 1011.1
20240518184610 23 360 1.6 8.0 0.00 0.48 0.48 66 1011.0
20240518183051 23 360 3.2 12.9 0.00 0.48 0.48 66 1011.0
20240518181547 23 360 4.8 12.9 0.00 0.48 0.48 67 1010.9
20240518180044 22 360 9.7 16.1 0.00 0.48 0.48 67 1010.6
20240518174541 22 360 11.3 17.7 0.00 0.48 0.48 67 1010.8
20240518173038 22 360 12.9 20.9 0.00 0.48 0.48 68 1011.1
20240518171535 22 360 11.3 19.3 0.00 0.48 0.48 67 1011.4
20240518170031 21 360 12.9 20.9 0.00 0.48 0.48 69 1012.0
20240518164531 21 360 14.5 24.1 0.00 0.48 0.48 69 1012.0
20240518163028 21 360 14.5 22.5 0.00 0.48 0.48 69 1012.1
20240518161528 20 360 8.0 20.9 0.00 0.48 0.48 70 1012.1
20240518160027 21 360 11.3 24.1 0.00 0.48 0.48 70 1011.9
20240518154529 21 360 12.9 22.5 0.00 0.48 0.48 72 1012.1
20240518153032 21 360 8.0 19.3 0.00 0.48 0.48 75 1012.1
20240518151522 20 360 8.0 19.3 0.00 0.48 0.48 78 1011.9
20240518150020 20 360 9.7 19.3 0.00 0.48 0.48 77 1012.0
20240518144519 19 360 9.7 22.5 0.00 0.48 0.48 78 1012.2
20240518143022 19 360 12.9 19.3 0.00 0.48 0.48 78 1012.3
20240518141517 20 360 8.0 17.7 0.03 0.48 0.48 79 1012.4
20240518140037 20 360 11.3 17.7 0.20 0.48 0.48 79 1012.5
20240518134514 19 360 6.4 16.1 0.20 0.48 0.48 79 1012.6
20240518133010 18 360 4.8 16.1 0.20 0.48 0.48 78 1012.7
20240518131508 17 360 11.3 30.6 0.15 0.43 0.43 77 1012.6
20240518130008 18 360 9.7 24.1 0.00 0.28 0.28 78 1012.4
20240518124506 17 360 14.5 20.9 0.00 0.28 0.28 76 1012.5
20240518123001 17 360 8.0 16.1 0.10 0.28 0.28 76 1012.6
20240518121503 17 360 6.4 17.7 0.25 0.28 0.28 75 1012.7
20240518120101 17 360 9.7 17.7 0.28 0.28 0.28 74 1012.4
20240518114559 17 360 11.3 17.7 0.28 0.28 0.28 73 1012.5
20240518113117 17 360 6.4 14.5 0.18 0.18 0.18 73 1013.0
20240518111556 17 360 12.9 19.3 0.03 0.03 0.03 73 1012.7
20240518110054 17 360 6.4 19.3 0.00 0.00 0.00 73 1012.7
20240518104600 16 360 9.7 17.7 0.00 0.00 0.00 74 1012.5
20240518103051 16 360 8.0 16.1 0.00 0.00 0.00 73 1012.5
20240518101553 16 360 3.2 8.0 0.00 0.00 0.00 73 1012.6
20240518100100 15 360 1.6 8.0 0.00 0.00 0.00 73 1012.5
20240518094549 15 360 4.8 9.7 0.00 0.00 0.00 73 1012.1
20240518093048 15 360 4.8 9.7 0.00 0.00 0.00 73 1012.0
20240518091547 15 360 3.2 9.7 0.00 0.00 0.00 73 1012.0
20240518090052 15 360 3.2 9.7 0.00 0.00 0.00 72 1012.0
20240518084547 15 360 3.2 9.7 0.00 0.00 0.00 72 1012.1
20240518083042 16 360 1.6 4.8 0.00 0.00 0.00 72 1012.2
20240518081541 16 360 3.2 8.0 0.00 0.00 0.00 72 1012.3
20240518080039 16 360 0.0 6.4 0.00 0.00 0.00 72 1012.5
20240518074542 16 360 3.2 6.4 0.00 0.00 0.00 72 1012.6
20240518073035 16 360 0.0 4.8 0.00 0.00 0.00 71 1012.7
20240518071535 16 360 0.0 6.4 0.00 0.00 0.00 71 1012.8
20240518070036 16 360 3.2 6.4 0.00 0.00 0.00 71 1012.7
20240518064537 16 360 1.6 6.4 0.00 0.00 0.00 70 1012.8
20240518063027 16 360 1.6 4.8 0.00 0.00 0.00 70 1013.0
20240518061526 16 360 4.8 9.7 0.00 0.00 0.00 70 1013.2
20240518060030 16 360 3.2 6.4 0.00 0.00 0.00 70 1013.3
20240518054524 16 360 0.0 0.0 0.00 0.00 0.00 70 1013.6
20240518053025 16 360 0.0 0.0 0.00 0.00 0.00 70 1013.5
20240518051524 16 360 0.0 4.8 0.00 0.00 0.00 70 1013.5
20240518050023 16 360 0.0 1.6 0.00 0.00 0.00 70 1013.6
20240518044519 16 360 0.0 0.0 0.00 0.00 0.00 70 1013.4
20240518043019 16 360 0.0 0.0 0.00 0.00 0.00 70 1013.5
20240518041527 16 360 4.8 8.0 0.00 0.00 0.00 70 1013.2
20240518040014 16 360 3.2 6.4 0.00 0.00 0.00 69 1013.6
20240518034513 16 360 1.6 4.8 0.00 0.00 0.00 70 1013.7
20240518033014 16 360 0.0 8.0 0.00 0.00 0.00 70 1013.7
20240518031511 16 360 6.4 12.9 0.00 0.00 0.00 69 1013.5
20240518030009 16 360 1.6 6.4 0.00 0.00 0.00 69 1013.6
20240518024510 16 360 3.2 9.7 0.00 0.00 0.00 69 1013.4
20240518023021 16 360 3.2 8.0 0.00 0.00 0.00 69 1013.4
20240518021506 16 360 3.2 19.3 0.00 0.00 0.00 69 1013.4
20240518020005 16 360 8.0 14.5 0.00 0.00 0.00 69 1013.3
20240518014504 16 360 8.0 17.7 0.00 0.00 0.00 69 1013.1
20240518013002 16 360 8.0 20.9 0.00 0.00 0.00 69 1013.0
20240518011604 16 360 8.0 19.3 0.00 0.00 0.00 69 1013.0
20240518010103 16 360 6.4 17.7 0.00 0.00 0.00 68 1013.2
20240518004603 17 360 9.7 19.3 0.00 0.00 0.00 68 1013.2
20240518003108 17 360 4.8 14.5 0.00 0.00 0.00 68 1013.2
20240518001606 17 360 3.2 14.5 0.00 0.00 0.00 68 1013.2
20240518000100 17 360 3.2 12.9 0.00 0.00 0.00 68 1013.1
20240517234622 17 360 3.2 14.5 0.00 0.00 0.00 67 1013.2
20240517233053 17 360 8.0 19.3 0.00 0.00 0.00 67 1012.9
20240517231552 17 360 6.4 17.7 0.00 0.00 0.00 67 1012.9
20240517230152 18 360 9.7 19.3 0.00 0.00 0.00 67 1012.8
20240517224551 17 360 11.3 22.5 0.00 0.00 0.00 66 1012.7
20240517223050 18 360 4.8 20.9 0.00 0.00 0.00 66 1012.5
20240517221550 18 360 14.5 30.6 0.00 0.00 0.00 66 1011.8
20240517220051 18 360 11.3 25.7 0.00 0.00 0.00 66 1011.9
20240517214549 18 360 11.3 27.4 0.00 0.00 0.00 65 1012.5
20240517213048 18 360 8.0 19.3 0.00 0.00 0.00 65 1012.7
20240517211551 18 360 6.4 20.9 0.00 0.00 0.00 65 1012.8
20240517210047 18 360 12.9 25.7 0.00 0.00 0.00 64 1012.6
20240517204546 18 360 14.5 27.4 0.00 0.00 0.00 64 1012.6
20240517203046 19 360 12.9 25.7 0.00 0.00 0.00 63 1012.6